Time;durP1;ratioP1;P1;durP2;ratioP2;P2;SDS_P1;SDS_P2;PMS_P1;PMS_P2;Temp;Humidity;BMP_temperature;BMP_pressure;BME280_temperature;BME280_humidity;BME280_pressure;Samples;Min_cycle;Max_cycle;Signal;HPM_P1;HPM_P2
2022/03/25 00:00:32;;;;;;;;;;;18.80;49.20;;;;;;5003937;28;19917;-76
2022/03/25 00:02:58;;;;;;;;;;;18.90;49.20;;;;;;5005196;28;19913;-76
2022/03/25 00:05:23;;;;;;;;;;;18.90;49.10;;;;;;5005532;28;19918;-76
2022/03/25 00:07:49;;;;;;;;;;;19.00;49.10;;;;;;5003629;28;20263;-76
2022/03/25 00:10:15;;;;;;;;;;;18.90;49.10;;;;;;5003402;28;19937;-76
2022/03/25 00:12:40;;;;;;;;;;;18.80;49.20;;;;;;4987272;28;19920;-76
2022/03/25 00:15:06;;;;;;;;;;;18.90;49.30;;;;;;5005035;28;19920;-76
2022/03/25 00:17:32;;;;;;;;;;;18.90;49.20;;;;;;5004711;28;20568;-76
2022/03/25 00:19:57;;;;;;;;;;;18.80;49.20;;;;;;5003290;28;19987;-77
2022/03/25 00:22:23;;;;;;;;;;;18.90;49.20;;;;;;5005674;28;19939;-76
2022/03/25 00:24:48;;;;;;;;;;;18.90;49.20;;;;;;5003615;28;19913;-77
2022/03/25 00:27:14;;;;;;;;;;;19.00;49.20;;;;;;5003546;28;20279;-77
2022/03/25 00:29:40;;;;;;;;;;;19.00;49.10;;;;;;5004978;28;19913;-77
2022/03/25 00:32:05;;;;;;;;;;;18.90;49.10;;;;;;5006717;28;19913;-77
2022/03/25 00:34:31;;;;;;;;;;;18.90;49.20;;;;;;5004660;28;19920;-77
2022/03/25 00:36:56;;;;;;;;;;;18.80;49.30;;;;;;5005241;28;19975;-77
2022/03/25 00:39:22;;;;;;;;;;;18.90;49.30;;;;;;5003296;28;20441;-76
2022/03/25 00:41:47;;;;;;;;;;;18.90;49.20;;;;;;5005006;28;19921;-77
2022/03/25 00:44:13;;;;;;;;;;;18.80;49.20;;;;;;5002540;28;20321;-77
2022/03/25 00:46:39;;;;;;;;;;;18.80;49.20;;;;;;5003369;28;19919;-75
2022/03/25 00:49:05;;;;;;;;;;;18.90;49.20;;;;;;5002964;28;19920;-76
2022/03/25 00:51:30;;;;;;;;;;;18.80;49.20;;;;;;5003245;28;19914;-76
2022/03/25 00:53:56;;;;;;;;;;;18.90;49.10;;;;;;5004863;28;19920;-76
2022/03/25 00:56:21;;;;;;;;;;;18.90;49.10;;;;;;5002747;28;19918;-76
2022/03/25 00:58:47;;;;;;;;;;;18.90;49.10;;;;;;5002980;28;19940;-76
2022/03/25 01:01:12;;;;;;;;;;;18.80;49.10;;;;;;5003227;28;19922;-76
2022/03/25 01:03:38;;;;;;;;;;;18.80;49.20;;;;;;5002787;28;19913;-76
2022/03/25 01:06:03;;;;;;;;;;;18.70;49.30;;;;;;5003261;28;19913;-76
2022/03/25 01:08:29;;;;;;;;;;;18.80;49.30;;;;;;5003880;28;19913;-76
2022/03/25 01:10:55;;;;;;;;;;;18.80;49.20;;;;;;5005041;28;19917;-76
2022/03/25 01:13:20;;;;;;;;;;;18.80;49.90;;;;;;4986560;28;19917;-76
2022/03/25 01:15:46;;;;;;;;;;;18.80;49.20;;;;;;4985987;28;19919;-76
2022/03/25 01:18:11;;;;;;;;;;;18.80;49.20;;;;;;5002932;28;19913;-76
2022/03/25 01:20:36;;;;;;;;;;;18.80;49.20;;;;;;5004069;28;19917;-76
2022/03/25 01:23:02;;;;;;;;;;;18.80;49.20;;;;;;5002651;28;20535;-76
2022/03/25 01:25:28;;;;;;;;;;;18.80;49.20;;;;;;5002944;28;19924;-75
2022/03/25 01:27:54;;;;;;;;;;;18.70;49.10;;;;;;5004675;28;19925;-76
2022/03/25 01:30:19;;;;;;;;;;;18.80;49.20;;;;;;5002631;28;19972;-76
2022/03/25 01:32:44;;;;;;;;;;;18.70;49.30;;;;;;5002587;28;19983;-76
2022/03/25 01:35:11;;;;;;;;;;;18.70;49.20;;;;;;5002691;28;19920;-76
2022/03/25 01:37:37;;;;;;;;;;;18.70;49.20;;;;;;5002339;28;19989;-76
2022/03/25 01:40:02;;;;;;;;;;;18.70;49.00;;;;;;5001948;28;19952;-77
2022/03/25 01:42:28;;;;;;;;;;;18.80;49.10;;;;;;5002645;28;19913;-76
2022/03/25 01:44:54;;;;;;;;;;;18.80;49.00;;;;;;5003097;28;19914;-76
2022/03/25 01:47:19;;;;;;;;;;;18.80;49.10;;;;;;5003869;28;19914;-76
2022/03/25 01:49:45;;;;;;;;;;;18.70;49.20;;;;;;4985686;28;20562;-76
2022/03/25 01:52:10;;;;;;;;;;;18.80;49.10;;;;;;5003439;28;19976;-77
2022/03/25 01:54:36;;;;;;;;;;;18.80;48.90;;;;;;5002274;28;20271;-76
2022/03/25 01:57:05;;;;;;;;;;;18.80;48.80;;;;;;5018859;28;20008;-76
2022/03/25 01:59:30;;;;;;;;;;;18.90;48.70;;;;;;5002038;28;19977;-77
2022/03/25 02:01:56;;;;;;;;;;;18.90;48.80;;;;;;5004503;28;19914;-76
2022/03/25 02:04:22;;;;;;;;;;;19.00;48.60;;;;;;5002351;28;20367;-76
2022/03/25 02:06:47;;;;;;;;;;;18.90;48.60;;;;;;5004632;28;19981;-76
2022/03/25 02:09:12;;;;;;;;;;;18.80;48.60;;;;;;5006249;28;19918;-77
2022/03/25 02:11:38;;;;;;;;;;;18.80;48.60;;;;;;5006245;28;19920;-76
2022/03/25 02:14:03;;;;;;;;;;;18.80;48.70;;;;;;5006574;28;19918;-76
2022/03/25 02:16:39;;;;;;;;;;;18.80;48.70;;;;;;5007422;28;20549;-76
2022/03/25 02:19:05;;;;;;;;;;;18.80;48.70;;;;;;5006216;28;19914;-76
2022/03/25 02:21:31;;;;;;;;;;;18.80;48.70;;;;;;5005938;28;19988;-76
2022/03/25 02:23:57;;;;;;;;;;;18.80;48.70;;;;;;5006560;28;19967;-76
2022/03/25 02:26:22;;;;;;;;;;;18.70;48.80;;;;;;5007228;28;20217;-76
2022/03/25 02:28:48;;;;;;;;;;;18.80;48.80;;;;;;5006736;28;19929;-76
2022/03/25 02:31:15;;;;;;;;;;;18.70;48.80;;;;;;5006239;28;19917;-76
2022/03/25 02:33:40;;;;;;;;;;;18.70;48.80;;;;;;5005702;28;19914;-76
2022/03/25 02:36:08;;;;;;;;;;;18.70;48.80;;;;;;4989240;28;20333;-76
2022/03/25 02:38:33;;;;;;;;;;;18.70;48.80;;;;;;5005680;28;19921;-76
2022/03/25 02:40:59;;;;;;;;;;;18.80;48.80;;;;;;4999180;28;19924;-77
2022/03/25 02:43:24;;;;;;;;;;;18.70;48.80;;;;;;5007173;28;19914;-76
2022/03/25 02:45:50;;;;;;;;;;;18.80;48.80;;;;;;5005664;28;19914;-76
2022/03/25 02:48:15;;;;;;;;;;;18.80;48.50;;;;;;5006189;28;19921;-76
2022/03/25 02:50:41;;;;;;;;;;;18.80;48.40;;;;;;5006724;28;19918;-76
2022/03/25 02:53:06;;;;;;;;;;;18.80;48.30;;;;;;4989272;28;19996;-77
2022/03/25 02:55:31;;;;;;;;;;;18.80;48.20;;;;;;5005635;28;19945;-76
2022/03/25 02:57:57;;;;;;;;;;;18.80;48.20;;;;;;5005908;28;19917;-76
2022/03/25 03:00:25;;;;;;;;;;;18.80;48.20;;;;;;4988951;28;19918;-77
2022/03/25 03:02:50;;;;;;;;;;;18.80;48.10;;;;;;5008593;28;19988;-77
2022/03/25 03:05:17;;;;;;;;;;;18.90;48.10;;;;;;5006989;28;19920;-77
2022/03/25 03:07:46;;;;;;;;;;;18.80;48.10;;;;;;4989500;28;20399;-77
2022/03/25 03:10:11;;;;;;;;;;;18.80;48.10;;;;;;5006615;28;19917;-77
2022/03/25 03:12:37;;;;;;;;;;;18.80;48.10;;;;;;5005398;28;20394;-77
2022/03/25 03:15:03;;;;;;;;;;;18.70;48.30;;;;;;5005368;28;20036;-77
2022/03/25 03:17:28;;;;;;;;;;;18.80;48.30;;;;;;5005392;28;19918;-77
2022/03/25 03:19:54;;;;;;;;;;;18.80;48.30;;;;;;4987397;28;21452;-77
2022/03/25 03:22:20;;;;;;;;;;;18.70;48.30;;;;;;5005076;28;19928;-77
2022/03/25 03:24:45;;;;;;;;;;;18.70;48.30;;;;;;5004853;28;19913;-75
2022/03/25 03:27:11;;;;;;;;;;;18.70;48.30;;;;;;5009325;28;19940;-77
2022/03/25 03:29:36;;;;;;;;;;;18.70;48.40;;;;;;4990373;28;19917;-75
2022/03/25 03:32:02;;;;;;;;;;;18.70;48.50;;;;;;4998229;28;20559;-77
2022/03/25 03:34:28;;;;;;;;;;;18.60;48.30;;;;;;5006411;28;19939;-76
2022/03/25 03:36:53;;;;;;;;;;;18.60;48.40;;;;;;5006805;28;20321;-77
2022/03/25 03:39:19;;;;;;;;;;;18.60;48.30;;;;;;5004994;28;19913;-77
2022/03/25 03:41:44;;;;;;;;;;;18.60;48.40;;;;;;5005249;28;19914;-75
2022/03/25 03:44:09;;;;;;;;;;;18.60;48.50;;;;;;5004990;28;19939;-75
2022/03/25 03:46:35;;;;;;;;;;;18.60;48.40;;;;;;5004823;28;20333;-77
2022/03/25 03:49:01;;;;;;;;;;;18.60;48.40;;;;;;5006223;28;19914;-77
2022/03/25 03:51:26;;;;;;;;;;;18.60;48.40;;;;;;5006780;28;19913;-77
2022/03/25 03:53:52;;;;;;;;;;;18.60;48.50;;;;;;5005930;28;19937;-78
2022/03/25 03:56:17;;;;;;;;;;;18.50;48.40;;;;;;5006314;28;19917;-75
2022/03/25 03:58:43;;;;;;;;;;;18.60;48.40;;;;;;5004218;28;19924;-75
2022/03/25 04:01:08;;;;;;;;;;;18.50;48.50;;;;;;5004790;28;19921;-77
2022/03/25 04:03:33;;;;;;;;;;;18.50;48.70;;;;;;5005651;28;20291;-77
2022/03/25 04:06:00;;;;;;;;;;;18.50;48.60;;;;;;4988304;28;19921;-77
2022/03/25 04:08:25;;;;;;;;;;;18.50;48.60;;;;;;5004740;28;20081;-77
2022/03/25 04:10:51;;;;;;;;;;;18.50;48.60;;;;;;4987883;28;20569;-77
2022/03/25 04:13:16;;;;;;;;;;;18.50;48.60;;;;;;5004444;28;19968;-77
2022/03/25 04:15:41;;;;;;;;;;;18.50;48.60;;;;;;5005405;28;19924;-77
2022/03/25 04:18:08;;;;;;;;;;;18.50;48.60;;;;;;5005464;28;20325;-77
2022/03/25 04:20:34;;;;;;;;;;;18.50;48.60;;;;;;5005804;28;19917;-76
2022/03/25 04:23:00;;;;;;;;;;;18.50;48.60;;;;;;5004883;28;19918;-76
2022/03/25 04:25:25;;;;;;;;;;;18.40;48.60;;;;;;5004635;28;19968;-76
2022/03/25 04:27:51;;;;;;;;;;;18.50;48.50;;;;;;5003781;28;20374;-75
2022/03/25 04:30:21;;;;;;;;;;;18.50;48.60;;;;;;5003872;28;19917;-76
2022/03/25 04:32:46;;;;;;;;;;;18.40;48.50;;;;;;5014263;28;19921;-76
2022/03/25 04:35:12;;;;;;;;;;;18.50;48.40;;;;;;5004147;28;19921;-77
2022/03/25 04:37:38;;;;;;;;;;;18.50;48.30;;;;;;5005167;28;19925;-76
2022/03/25 04:40:04;;;;;;;;;;;18.50;48.20;;;;;;5005644;28;19924;-76
2022/03/25 04:42:29;;;;;;;;;;;18.60;48.30;;;;;;5006515;28;19917;-75
2022/03/25 04:44:55;;;;;;;;;;;18.50;48.20;;;;;;5004867;28;19960;-76
2022/03/25 04:47:20;;;;;;;;;;;18.50;48.20;;;;;;5005453;28;19964;-77
2022/03/25 04:49:46;;;;;;;;;;;18.50;48.20;;;;;;5006133;28;19920;-77
2022/03/25 04:52:11;;;;;;;;;;;18.50;48.20;;;;;;5005133;28;19936;-77
2022/03/25 04:54:37;;;;;;;;;;;18.50;48.30;;;;;;5003734;28;19917;-77
2022/03/25 04:57:02;;;;;;;;;;;18.50;48.20;;;;;;5004531;28;20008;-77
2022/03/25 04:59:28;;;;;;;;;;;18.50;48.20;;;;;;5005900;28;19991;-76
2022/03/25 05:01:54;;;;;;;;;;;18.50;48.20;;;;;;5004715;28;19913;-76
2022/03/25 05:04:20;;;;;;;;;;;18.50;48.10;;;;;;5014106;22;19926;-60
2022/03/25 05:06:46;;;;;;;;;;;18.40;48.10;;;;;;4998847;28;20356;-60
2022/03/25 05:09:11;;;;;;;;;;;18.50;48.10;;;;;;4999463;28;19988;-59
2022/03/25 05:11:37;;;;;;;;;;;18.50;48.10;;;;;;5000664;28;19987;-59
2022/03/25 05:14:03;;;;;;;;;;;18.40;48.20;;;;;;5000407;28;20577;-59
2022/03/25 05:16:28;;;;;;;;;;;18.40;48.10;;;;;;5000647;28;19924;-60
2022/03/25 05:18:54;;;;;;;;;;;18.40;48.20;;;;;;4999180;28;19914;-59
2022/03/25 05:21:20;;;;;;;;;;;18.50;48.20;;;;;;5000188;28;19917;-60
2022/03/25 05:23:45;;;;;;;;;;;18.40;48.10;;;;;;4999844;28;19917;-60
2022/03/25 05:26:11;;;;;;;;;;;18.50;48.10;;;;;;5000290;28;19918;-60
2022/03/25 05:28:36;;;;;;;;;;;18.40;48.10;;;;;;4999602;28;20376;-60
2022/03/25 05:31:02;;;;;;;;;;;18.50;48.20;;;;;;5000573;28;20441;-60
2022/03/25 05:33:28;;;;;;;;;;;18.50;48.30;;;;;;5017280;22;19920;-64
2022/03/25 05:35:53;;;;;;;;;;;18.50;49.20;;;;;;5018992;28;20573;-65
2022/03/25 05:38:19;;;;;;;;;;;18.50;48.60;;;;;;5021882;28;19944;-66
2022/03/25 05:40:44;;;;;;;;;;;18.50;48.70;;;;;;5021406;28;19975;-65
2022/03/25 05:43:10;;;;;;;;;;;18.50;48.90;;;;;;5025858;28;19913;-63
2022/03/25 05:45:35;;;;;;;;;;;18.60;49.40;;;;;;5028830;28;20399;-65
2022/03/25 05:48:01;;;;;;;;;;;18.60;49.20;;;;;;5028239;28;19920;-68
2022/03/25 05:50:26;;;;;;;;;;;18.70;49.00;;;;;;5027982;28;19932;-67
2022/03/25 05:52:52;;;;;;;;;;;18.80;48.90;;;;;;5028709;28;20921;-67
2022/03/25 05:55:18;;;;;;;;;;;18.80;48.70;;;;;;5030104;28;19914;-68
2022/03/25 05:57:43;;;;;;;;;;;18.80;48.60;;;;;;5011388;28;19975;-68
2022/03/25 06:00:09;;;;;;;;;;;18.90;48.50;;;;;;5028057;28;19921;-68
2022/03/25 06:02:35;;;;;;;;;;;18.90;48.50;;;;;;5028123;28;20120;-68
2022/03/25 06:05:00;;;;;;;;;;;18.90;48.40;;;;;;5030248;28;19923;-66
2022/03/25 06:07:26;;;;;;;;;;;18.90;48.30;;;;;;5028743;28;19913;-66
2022/03/25 06:09:51;;;;;;;;;;;18.90;48.30;;;;;;5010627;28;19967;-69
2022/03/25 06:12:17;;;;;;;;;;;19.00;48.30;;;;;;5030144;28;20334;-69
2022/03/25 06:14:42;;;;;;;;;;;18.90;48.20;;;;;;5028068;28;19921;-69
2022/03/25 06:17:08;;;;;;;;;;;19.00;49.70;;;;;;5019875;28;19967;-69
2022/03/25 06:19:33;;;;;;;;;;;19.10;49.70;;;;;;5027643;28;19943;-69
2022/03/25 06:21:59;;;;;;;;;;;19.10;49.70;;;;;;5011888;28;19949;-69
2022/03/25 06:24:24;;;;;;;;;;;19.10;49.80;;;;;;5028469;28;19932;-70
2022/03/25 06:26:50;;;;;;;;;;;19.10;50.00;;;;;;5025270;28;20491;-67
2022/03/25 06:29:16;;;;;;;;;;;19.10;49.90;;;;;;5008714;28;19921;-67
2022/03/25 06:31:41;;;;;;;;;;;19.00;49.70;;;;;;5026855;28;20335;-67
2022/03/25 06:34:07;;;;;;;;;;;19.00;49.60;;;;;;5028541;28;20437;-68
2022/03/25 06:36:33;;;;;;;;;;;19.00;49.60;;;;;;5027976;28;19921;-67
2022/03/25 06:38:58;;;;;;;;;;;19.00;49.60;;;;;;5026168;28;21771;-67
2022/03/25 06:41:23;;;;;;;;;;;19.00;49.50;;;;;;5028039;28;19913;-67
2022/03/25 06:43:52;;;;;;;;;;;18.90;49.50;;;;;;5027256;28;20380;-67
2022/03/25 06:46:18;;;;;;;;;;;18.90;49.40;;;;;;5027349;28;19920;-66
2022/03/25 06:48:43;;;;;;;;;;;18.90;49.40;;;;;;5009358;28;19917;-67
2022/03/25 06:51:09;;;;;;;;;;;18.90;49.30;;;;;;5027656;28;20408;-67
2022/03/25 06:53:35;;;;;;;;;;;18.90;49.30;;;;;;5025038;28;19913;-67
2022/03/25 06:56:01;;;;;;;;;;;18.90;49.20;;;;;;5006999;28;19920;-68
2022/03/25 06:58:26;;;;;;;;;;;18.90;49.20;;;;;;5023462;28;19917;-64
2022/03/25 07:00:52;;;;;;;;;;;18.90;49.10;;;;;;5024849;28;19928;-68
2022/03/25 07:03:18;;;;;;;;;;;18.90;49.10;;;;;;5024589;28;20392;-67
2022/03/25 07:05:43;;;;;;;;;;;18.90;49.10;;;;;;5006657;28;20543;-68
2022/03/25 07:08:09;;;;;;;;;;;18.90;49.00;;;;;;5006515;28;19971;-68
2022/03/25 07:10:34;;;;;;;;;;;18.80;49.00;;;;;;5005666;28;19925;-67
2022/03/25 07:13:00;;;;;;;;;;;18.80;49.60;;;;;;5024595;28;19918;-67
2022/03/25 07:15:25;;;;;;;;;;;18.80;48.90;;;;;;5006155;28;19913;-67
2022/03/25 07:17:52;;;;;;;;;;;18.80;48.90;;;;;;5022279;28;20113;-68
2022/03/25 07:20:18;;;;;;;;;;;18.80;48.90;;;;;;5023299;28;19977;-68
2022/03/25 07:22:44;;;;;;;;;;;18.90;50.00;;;;;;5007334;28;19936;-69
2022/03/25 07:25:10;;;;;;;;;;;18.90;49.80;;;;;;5007842;28;19959;-68
2022/03/25 07:27:35;;;;;;;;;;;18.90;49.40;;;;;;5006921;28;19921;-68
2022/03/25 07:30:01;;;;;;;;;;;18.90;49.10;;;;;;5007542;28;20611;-69
2022/03/25 07:32:26;;;;;;;;;;;19.00;48.90;;;;;;5006975;28;20353;-67
2022/03/25 07:34:52;;;;;;;;;;;19.00;48.80;;;;;;5024888;28;19925;-70
2022/03/25 07:37:17;;;;;;;;;;;19.00;48.70;;;;;;5025093;28;19921;-69
2022/03/25 07:39:44;;;;;;;;;;;19.00;48.70;;;;;;5024336;28;20296;-68
2022/03/25 07:42:09;;;;;;;;;;;19.00;48.60;;;;;;5024621;28;19918;-68
2022/03/25 07:44:36;;;;;;;;;;;19.00;48.60;;;;;;5025049;28;20702;-68
2022/03/25 07:47:01;;;;;;;;;;;19.00;48.60;;;;;;5013683;28;19924;-68
2022/03/25 07:49:27;;;;;;;;;;;19.00;48.60;;;;;;5023933;28;19917;-68
2022/03/25 07:51:52;;;;;;;;;;;19.00;48.60;;;;;;5024428;28;19920;-69
2022/03/25 07:54:18;;;;;;;;;;;19.00;48.60;;;;;;5024334;28;20289;-69
2022/03/25 07:56:43;;;;;;;;;;;19.00;48.60;;;;;;5022999;28;19921;-70
2022/03/25 07:59:09;;;;;;;;;;;19.00;48.60;;;;;;5023726;28;19949;-68
2022/03/25 08:01:34;;;;;;;;;;;19.00;48.60;;;;;;5025152;28;19940;-69
2022/03/25 08:04:00;;;;;;;;;;;19.00;48.60;;;;;;5024448;28;19917;-68
2022/03/25 08:06:25;;;;;;;;;;;19.00;49.40;;;;;;5023421;28;20339;-69
2022/03/25 08:08:51;;;;;;;;;;;19.00;48.80;;;;;;5023466;28;20372;-69
2022/03/25 08:11:20;;;;;;;;;;;19.00;48.80;;;;;;5023617;28;19917;-67
2022/03/25 08:13:47;;;;;;;;;;;19.00;48.80;;;;;;5023941;28;19917;-69
2022/03/25 08:16:16;;;;;;;;;;;19.00;48.80;;;;;;5024373;28;19913;-68
2022/03/25 08:18:42;;;;;;;;;;;18.90;49.00;;;;;;5023093;28;19923;-68
2022/03/25 08:21:07;;;;;;;;;;;18.90;48.90;;;;;;5024175;28;20292;-67
2022/03/25 08:29:01;;;;;;;;;;;18.90;49.10;;;;;;5024018;28;19924;-68
2022/03/25 08:31:28;;;;;;;;;;;19.00;49.20;;;;;;5023657;28;20531;-68
2022/03/25 08:33:54;;;;;;;;;;;18.90;49.10;;;;;;5023373;28;19956;-69
2022/03/25 08:36:19;;;;;;;;;;;18.90;49.80;;;;;;5005409;28;20376;-69
2022/03/25 08:38:45;;;;;;;;;;;18.90;49.20;;;;;;5022673;28;20331;-69
2022/03/25 08:41:11;;;;;;;;;;;18.90;49.10;;;;;;5023154;28;19921;-69
2022/03/25 08:43:36;;;;;;;;;;;19.00;49.10;;;;;;5023342;28;19917;-69
2022/03/25 08:46:02;;;;;;;;;;;18.90;49.00;;;;;;5023684;28;20507;-69
2022/03/25 08:48:27;;;;;;;;;;;18.90;49.00;;;;;;5005046;28;20436;-68
2022/03/25 08:50:53;;;;;;;;;;;19.00;48.90;;;;;;5022993;28;19917;-68
2022/03/25 08:53:19;;;;;;;;;;;19.00;49.00;;;;;;5022920;28;19913;-68
2022/03/25 08:55:44;;;;;;;;;;;19.00;49.00;;;;;;5022423;28;20387;-68
2022/03/25 08:58:10;;;;;;;;;;;19.00;49.00;;;;;;5022607;28;19921;-68
2022/03/25 09:00:35;;;;;;;;;;;19.00;48.90;;;;;;5004509;28;19936;-68
2022/03/25 09:03:01;;;;;;;;;;;19.00;49.10;;;;;;5023307;28;19928;-68
2022/03/25 09:05:26;;;;;;;;;;;19.00;49.40;;;;;;5023009;28;20426;-66
2022/03/25 09:07:52;;;;;;;;;;;19.00;48.90;;;;;;5022782;28;20000;-68
2022/03/25 09:10:17;;;;;;;;;;;19.00;48.90;;;;;;5022006;28;19917;-68
2022/03/25 09:12:46;;;;;;;;;;;19.00;48.80;;;;;;5022993;28;19913;-69
2022/03/25 09:15:13;;;;;;;;;;;19.00;48.90;;;;;;5023363;28;20403;-68
2022/03/25 09:17:38;;;;;;;;;;;19.00;49.00;;;;;;5022681;28;19952;-69
2022/03/25 09:20:05;;;;;;;;;;;19.00;49.00;;;;;;5022503;28;19913;-68
2022/03/25 09:22:31;;;;;;;;;;;19.00;49.10;;;;;;5022751;28;19964;-68
2022/03/25 09:24:56;;;;;;;;;;;19.00;49.00;;;;;;5022387;28;20346;-68
2022/03/25 09:27:22;;;;;;;;;;;19.00;49.00;;;;;;5023707;28;19913;-67
2022/03/25 09:29:47;;;;;;;;;;;19.00;49.00;;;;;;5022279;28;19928;-68
2022/03/25 09:32:13;;;;;;;;;;;18.90;49.00;;;;;;5023351;28;19968;-68
2022/03/25 09:37:22;;;;;;;;;;;19.00;49.70;;;;;;5023627;28;19936;-68
2022/03/25 09:39:48;;;;;;;;;;;19.00;48.90;;;;;;5022337;28;19917;-68
2022/03/25 09:42:14;;;;;;;;;;;19.00;49.00;;;;;;5022372;28;19913;-68
2022/03/25 09:44:40;;;;;;;;;;;19.00;49.10;;;;;;5005336;28;19917;-68
2022/03/25 09:47:05;;;;;;;;;;;19.00;49.00;;;;;;5024477;28;20321;-69
2022/03/25 09:49:31;;;;;;;;;;;19.00;49.00;;;;;;5023991;28;19989;-67
2022/03/25 09:51:56;;;;;;;;;;;19.00;49.00;;;;;;5024082;28;19940;-67
2022/03/25 09:54:22;;;;;;;;;;;19.00;49.10;;;;;;5004310;28;19914;-67
2022/03/25 09:56:48;;;;;;;;;;;19.00;49.00;;;;;;5004664;28;19932;-68
2022/03/25 09:59:17;;;;;;;;;;;19.00;49.00;;;;;;5021801;28;19913;-67
2022/03/25 10:01:42;;;;;;;;;;;19.00;49.00;;;;;;5021758;28;19913;-66
2022/03/25 10:04:08;;;;;;;;;;;19.00;49.00;;;;;;5021297;28;19924;-68
2022/03/25 10:06:46;;;;;;;;;;;19.00;48.90;;;;;;5022429;28;19918;-68
2022/03/25 10:09:12;;;;;;;;;;;19.00;49.00;;;;;;5021319;28;19917;-68
2022/03/25 10:11:37;;;;;;;;;;;19.00;48.80;;;;;;5005333;28;19920;-69
2022/03/25 10:14:18;;;;;;;;;;;19.00;48.70;;;;;;5022686;28;19949;-68
2022/03/25 10:16:48;;;;;;;;;;;19.00;49.00;;;;;;5022553;28;20514;-68
2022/03/25 10:19:17;;;;;;;;;;;19.00;48.80;;;;;;5021329;28;19913;-67
2022/03/25 10:21:59;;;;;;;;;;;19.00;48.90;;;;;;5021623;28;20028;-67
2022/03/25 10:24:37;;;;;;;;;;;19.00;49.00;;;;;;5021798;28;19966;-68
2022/03/25 10:27:04;;;;;;;;;;;19.00;48.90;;;;;;5021976;28;20503;-68
2022/03/25 10:29:29;;;;;;;;;;;19.00;48.80;;;;;;5006686;28;21249;-68
2022/03/25 10:32:05;;;;;;;;;;;19.00;48.90;;;;;;5025911;28;19983;-68
2022/03/25 10:34:31;;;;;;;;;;;19.00;49.00;;;;;;5025269;28;20610;-68
2022/03/25 10:37:00;;;;;;;;;;;19.00;49.00;;;;;;5025214;28;19917;-68
2022/03/25 10:39:29;;;;;;;;;;;19.10;49.00;;;;;;5025338;28;20010;-68
2022/03/25 10:41:57;;;;;;;;;;;19.10;49.10;;;;;;5008406;28;19951;-68
2022/03/25 10:44:31;;;;;;;;;;;19.10;49.00;;;;;;5025661;28;19917;-68
2022/03/25 10:46:56;;;;;;;;;;;19.10;49.00;;;;;;5009209;28;19924;-68
2022/03/25 10:49:22;;;;;;;;;;;19.10;48.90;;;;;;5025815;28;19920;-68
2022/03/25 10:51:55;;;;;;;;;;;19.10;48.80;;;;;;5025634;28;19929;-67
2022/03/25 10:54:24;;;;;;;;;;;19.10;48.90;;;;;;5009120;28;19913;-68
2022/03/25 10:56:51;;;;;;;;;;;19.10;48.90;;;;;;5027952;28;20406;-67
2022/03/25 10:59:20;;;;;;;;;;;19.10;48.90;;;;;;5028328;28;19944;-68
2022/03/25 11:01:46;;;;;;;;;;;19.10;48.90;;;;;;5032416;28;19913;-68
2022/03/25 11:04:11;;;;;;;;;;;19.10;48.90;;;;;;5015291;28;19917;-68
2022/03/25 11:06:39;;;;;;;;;;;19.10;48.90;;;;;;5013867;28;19917;-69
2022/03/25 11:09:05;;;;;;;;;;;19.10;48.80;;;;;;5027610;28;19918;-69
2022/03/25 11:11:30;;;;;;;;;;;19.20;48.50;;;;;;5007617;28;19921;-69
2022/03/25 11:13:56;;;;;;;;;;;19.20;48.50;;;;;;5025274;28;19925;-69
2022/03/25 11:16:21;;;;;;;;;;;19.20;47.80;;;;;;5027818;28;19921;-69
2022/03/25 11:18:47;;;;;;;;;;;19.20;47.30;;;;;;5008506;28;20385;-67
2022/03/25 11:21:12;;;;;;;;;;;19.20;46.80;;;;;;5007596;28;20359;-69
2022/03/25 11:23:37;;;;;;;;;;;19.20;46.80;;;;;;5026679;28;19917;-67
2022/03/25 11:26:05;;;;;;;;;;;19.20;47.10;;;;;;5025557;28;20402;-70
2022/03/25 11:28:31;;;;;;;;;;;19.20;47.50;;;;;;5023248;28;19921;-69
2022/03/25 11:30:57;;;;;;;;;;;19.20;47.90;;;;;;5006642;28;20386;-71
2022/03/25 11:33:23;;;;;;;;;;;19.30;48.20;;;;;;5024057;28;20023;-70
2022/03/25 11:35:49;;;;;;;;;;;19.30;48.20;;;;;;5017645;23;20406;-57
2022/03/25 11:38:18;;;;;;;;;;;19.30;48.20;;;;;;5001839;28;19924;-54
2022/03/25 11:40:47;;;;;;;;;;;19.30;48.20;;;;;;5001248;28;19918;-54
2022/03/25 11:43:13;;;;;;;;;;;19.30;48.10;;;;;;5002336;28;20008;-53
2022/03/25 11:45:38;;;;;;;;;;;19.30;48.00;;;;;;5001986;28;20226;-54
2022/03/25 11:48:04;;;;;;;;;;;19.30;48.00;;;;;;5001887;28;19920;-53
2022/03/25 11:50:36;;;;;;;;;;;19.30;47.90;;;;;;5001273;28;19921;-57
2022/03/25 11:53:10;;;;;;;;;;;19.40;48.20;;;;;;5001544;28;19949;-55
2022/03/25 11:55:54;;;;;;;;;;;19.30;48.10;;;;;;5002234;28;20011;-57
2022/03/25 11:58:19;;;;;;;;;;;19.40;48.20;;;;;;5001342;28;19925;-54
2022/03/25 12:00:46;;;;;;;;;;;19.40;48.10;;;;;;5001348;28;19913;-55
2022/03/25 12:03:13;;;;;;;;;;;19.40;48.20;;;;;;5001512;28;19917;-56
2022/03/25 12:05:38;;;;;;;;;;;19.40;48.10;;;;;;4999612;28;19913;-55
2022/03/25 12:08:21;;;;;;;;;;;19.40;48.00;;;;;;5001337;28;19917;-55
2022/03/25 12:10:46;;;;;;;;;;;19.40;48.00;;;;;;5000347;28;20518;-55
2022/03/25 12:13:12;;;;;;;;;;;19.40;47.90;;;;;;5001499;28;20458;-54
2022/03/25 12:15:44;;;;;;;;;;;19.40;47.90;;;;;;5001437;28;19913;-56
2022/03/25 12:18:28;;;;;;;;;;;19.40;47.60;;;;;;5017190;28;19972;-56
2022/03/25 12:20:53;;;;;;;;;;;19.40;47.30;;;;;;5007689;28;19914;-57
2022/03/25 12:23:19;;;;;;;;;;;19.50;46.80;;;;;;5001400;28;19960;-55
2022/03/25 12:25:44;;;;;;;;;;;19.50;46.50;;;;;;5001358;28;19913;-54
2022/03/25 12:28:10;;;;;;;;;;;19.50;46.30;;;;;;5001911;28;20493;-54
2022/03/25 12:30:36;;;;;;;;;;;19.50;46.30;;;;;;4999191;28;20681;-57
2022/03/25 12:33:07;;;;;;;;;;;19.50;46.30;;;;;;5001441;28;19914;-56
2022/03/25 12:35:33;;;;;;;;;;;19.50;46.40;;;;;;5000862;28;19921;-54
2022/03/25 12:38:05;;;;;;;;;;;19.50;46.40;;;;;;5001568;28;20709;-56
2022/03/25 12:40:32;;;;;;;;;;;19.50;46.20;;;;;;4999188;28;19921;-55
2022/03/25 12:42:58;;;;;;;;;;;19.50;46.20;;;;;;5001031;28;19937;-55
2022/03/25 12:45:27;;;;;;;;;;;19.50;46.20;;;;;;4999167;28;19914;-53
2022/03/25 12:47:53;;;;;;;;;;;19.60;46.50;;;;;;5001162;28;20488;-53
2022/03/25 12:50:18;;;;;;;;;;;19.60;46.50;;;;;;5000466;28;19963;-54
2022/03/25 12:52:44;;;;;;;;;;;19.60;46.40;;;;;;4998287;28;20021;-52
2022/03/25 12:55:10;;;;;;;;;;;19.60;45.60;;;;;;5001152;28;19930;-56
2022/03/25 12:57:36;;;;;;;;;;;19.60;45.50;;;;;;5000239;28;19917;-56
2022/03/25 13:00:08;;;;;;;;;;;19.50;45.50;;;;;;5000324;28;20000;-54
2022/03/25 13:02:38;;;;;;;;;;;19.60;45.40;;;;;;5000353;28;19920;-57
2022/03/25 13:05:08;;;;;;;;;;;19.60;45.40;;;;;;5000290;28;20121;-55
2022/03/25 13:07:54;;;;;;;;;;;19.60;45.30;;;;;;5000426;28;19967;-55
2022/03/25 13:10:23;;;;;;;;;;;19.60;45.10;;;;;;4999696;28;20294;-54
2022/03/25 13:12:52;;;;;;;;;;;19.60;45.30;;;;;;5000377;28;19914;-56
2022/03/25 13:15:27;;;;;;;;;;;19.60;45.30;;;;;;4998544;28;20334;-57
2022/03/25 13:17:59;;;;;;;;;;;19.50;45.80;;;;;;5000274;28;20307;-56
2022/03/25 13:20:29;;;;;;;;;;;19.60;46.00;;;;;;4999307;28;19967;-55
2022/03/25 13:23:17;;;;;;;;;;;19.50;46.10;;;;;;4998815;28;19913;-55
2022/03/25 13:25:47;;;;;;;;;;;19.60;47.00;;;;;;4999630;28;19922;-58
2022/03/25 13:28:24;;;;;;;;;;;19.60;47.80;;;;;;5000221;28;19913;-56
2022/03/25 13:31:11;;;;;;;;;;;19.60;48.00;;;;;;5000169;28;19914;-56
2022/03/25 13:33:51;;;;;;;;;;;19.60;48.30;;;;;;5000408;28;19953;-55
2022/03/25 13:36:30;;;;;;;;;;;19.60;48.80;;;;;;5015053;28;19972;-57
2022/03/25 13:39:16;;;;;;;;;;;19.70;47.30;;;;;;4999753;28;19914;-55
2022/03/25 13:41:45;;;;;;;;;;;19.70;46.70;;;;;;5000385;28;19921;-58
2022/03/25 13:44:15;;;;;;;;;;;19.70;46.70;;;;;;5000231;28;19914;-58
2022/03/25 13:46:44;;;;;;;;;;;19.70;46.60;;;;;;4998807;28;19913;-58
2022/03/25 13:49:12;;;;;;;;;;;19.70;47.40;;;;;;4999279;28;22242;-57
2022/03/25 13:51:38;;;;;;;;;;;19.70;47.70;;;;;;4999708;28;19921;-57
2022/03/25 13:54:03;;;;;;;;;;;19.70;47.80;;;;;;5000352;28;19979;-56
2022/03/25 13:56:34;;;;;;;;;;;19.70;47.90;;;;;;4999477;28;20000;-56
2022/03/25 13:59:00;;;;;;;;;;;19.70;47.90;;;;;;4999587;28;20461;-56
2022/03/25 14:01:38;;;;;;;;;;;19.70;47.90;;;;;;5000200;28;19921;-57
2022/03/25 14:04:05;;;;;;;;;;;19.70;47.90;;;;;;5001164;28;19968;-55
2022/03/25 14:06:32;;;;;;;;;;;19.70;47.80;;;;;;5003673;28;19975;-56
2022/03/25 14:08:57;;;;;;;;;;;19.70;47.70;;;;;;5001888;28;20370;-56
2022/03/25 14:11:31;;;;;;;;;;;19.70;47.50;;;;;;5004318;28;19945;-56
2022/03/25 14:13:57;;;;;;;;;;;19.70;47.50;;;;;;5002599;28;19913;-54
2022/03/25 14:16:23;;;;;;;;;;;19.70;47.50;;;;;;5004200;28;20392;-53
2022/03/25 14:18:52;;;;;;;;;;;19.70;47.40;;;;;;5002207;28;19920;-55
2022/03/25 14:21:23;;;;;;;;;;;19.70;47.30;;;;;;5003684;28;19918;-56